createdAt,value
2018-09-17T00:01:44.171Z,13.00
2018-09-17T00:04:11.728Z,13.00
2018-09-17T00:06:39.283Z,12.90
2018-09-17T00:09:08.340Z,12.90
2018-09-17T00:11:36.244Z,12.80
2018-09-17T00:14:03.818Z,12.70
2018-09-17T00:16:31.604Z,12.70
2018-09-17T00:18:59.200Z,12.70
2018-09-17T00:21:26.727Z,12.70
2018-09-17T00:23:54.386Z,12.60
2018-09-17T00:26:21.953Z,12.60
2018-09-17T00:28:49.488Z,12.50
2018-09-17T00:31:17.055Z,12.50
2018-09-17T00:33:44.603Z,12.40
2018-09-17T00:36:12.147Z,12.40
2018-09-17T00:38:39.698Z,12.40
2018-09-17T00:41:07.589Z,12.30
2018-09-17T00:43:35.460Z,12.30
2018-09-17T00:46:03.088Z,12.30
2018-09-17T00:48:30.696Z,12.30
2018-09-17T00:50:58.236Z,12.30
2018-09-17T00:53:25.850Z,12.30
2018-09-17T00:55:53.416Z,12.30
2018-09-17T00:58:20.923Z,12.20
2018-09-17T01:00:48.532Z,12.20
2018-09-17T01:03:16.098Z,12.10
2018-09-17T01:05:43.633Z,12.10
2018-09-17T01:08:11.305Z,12.10
2018-09-17T01:10:38.878Z,12.00
2018-09-17T01:13:06.721Z,12.00
2018-09-17T01:15:34.299Z,12.00
2018-09-17T01:18:02.127Z,12.00
2018-09-17T01:20:29.751Z,12.00
2018-09-17T01:22:57.564Z,12.00
2018-09-17T01:25:25.125Z,12.00
2018-09-17T01:27:52.651Z,12.00
2018-09-17T01:30:20.264Z,12.00
2018-09-17T01:32:47.848Z,11.90
2018-09-17T01:35:15.411Z,11.90
2018-09-17T01:37:43.026Z,11.80
2018-09-17T01:40:10.608Z,11.80
2018-09-17T01:42:38.150Z,11.80
2018-09-17T01:45:05.749Z,11.90
2018-09-17T01:47:33.281Z,11.80
2018-09-17T01:50:00.805Z,11.80
2018-09-17T01:52:28.340Z,11.70
2018-09-17T01:54:55.891Z,11.70
2018-09-17T01:57:23.505Z,11.70
2018-09-17T01:59:51.024Z,11.70
2018-09-17T02:02:18.584Z,11.70
2018-09-17T02:04:46.125Z,11.60
2018-09-17T02:07:13.924Z,11.70
2018-09-17T02:09:41.778Z,11.70
2018-09-17T02:12:11.102Z,11.60
2018-09-17T02:14:39.057Z,11.60
2018-09-17T02:17:06.947Z,11.50
2018-09-17T02:19:34.467Z,11.50
2018-09-17T02:22:02.319Z,11.50
2018-09-17T02:24:29.876Z,11.50
2018-09-17T02:26:57.552Z,11.60
2018-09-17T02:29:25.404Z,11.50
2018-09-17T02:31:53.037Z,11.40
2018-09-17T02:34:20.568Z,11.40
2018-09-17T02:36:48.184Z,11.40
2018-09-17T02:39:15.807Z,11.50
2018-09-17T02:41:43.377Z,11.50
2018-09-17T02:44:10.978Z,11.40
2018-09-17T02:46:38.532Z,11.30
2018-09-17T02:49:06.112Z,11.30
2018-09-17T02:51:33.632Z,11.30
2018-09-17T02:54:01.188Z,11.30
2018-09-17T02:56:28.744Z,11.30
2018-09-17T02:58:56.520Z,11.20
2018-09-17T03:01:24.071Z,11.20
2018-09-17T03:03:51.584Z,11.10
2018-09-17T03:06:19.114Z,11.20
2018-09-17T03:08:46.895Z,11.20
2018-09-17T03:11:14.463Z,11.20
2018-09-17T03:13:42.001Z,11.10
2018-09-17T03:16:09.557Z,11.00
2018-09-17T03:18:48.079Z,11.00
2018-09-17T03:21:15.634Z,10.90
2018-09-17T03:23:43.179Z,10.90
2018-09-17T03:26:10.728Z,10.90
2018-09-17T03:28:38.276Z,10.90
2018-09-17T03:31:05.833Z,10.90
2018-09-17T03:33:33.355Z,10.90
2018-09-17T03:36:00.931Z,10.90
2018-09-17T03:38:37.865Z,10.90
2018-09-17T03:41:06.311Z,10.90
2018-09-17T03:43:34.555Z,10.90
2018-09-17T03:46:02.189Z,10.80
2018-09-17T03:48:30.711Z,10.80
2018-09-17T03:50:58.568Z,10.80
2018-09-17T03:53:26.132Z,10.80
2018-09-17T03:55:53.746Z,10.80
2018-09-17T03:58:21.315Z,10.70
2018-09-17T04:00:49.215Z,10.70
2018-09-17T04:03:16.790Z,10.60
2018-09-17T04:05:44.655Z,10.60
2018-09-17T04:08:12.183Z,10.70
2018-09-17T04:10:39.994Z,10.70
2018-09-17T04:13:07.946Z,10.60
2018-09-17T04:15:35.484Z,10.60
2018-09-17T04:18:03.077Z,10.60
2018-09-17T04:20:30.663Z,10.60
2018-09-17T04:22:58.232Z,10.60
2018-09-17T04:25:26.372Z,10.60
2018-09-17T04:27:53.935Z,10.50
2018-09-17T04:30:21.559Z,10.50
2018-09-17T04:32:49.799Z,10.40
2018-09-17T04:35:17.397Z,10.40
2018-09-17T18:25:13.899Z,21.00
2018-09-17T18:27:41.642Z,20.80
2018-09-17T18:30:09.450Z,20.60
2018-09-17T18:32:37.326Z,20.50
2018-09-17T18:35:05.055Z,20.50
2018-09-17T18:37:32.796Z,20.30
2018-09-17T18:40:00.705Z,20.30
2018-09-17T18:42:28.473Z,20.20
2018-09-17T18:44:56.184Z,20.20
2018-09-17T18:47:24.767Z,20.00
2018-09-17T18:49:52.441Z,19.90
2018-09-17T18:52:20.288Z,19.90
2018-09-17T18:54:47.984Z,19.80
2018-09-17T18:57:22.446Z,19.70
2018-09-17T18:59:50.358Z,19.60
2018-09-17T19:02:18.074Z,19.50
2018-09-17T19:04:45.994Z,19.50
2018-09-17T19:07:13.693Z,19.40
2018-09-17T19:09:46.561Z,19.20
2018-09-17T19:12:14.989Z,19.10
2018-09-17T19:14:48.654Z,19.10
2018-09-17T19:17:22.222Z,19.00
2018-09-17T19:19:50.775Z,19.00
2018-09-17T19:22:24.668Z,18.90
2018-09-17T19:24:53.796Z,18.80
2018-09-17T19:27:26.850Z,18.70
2018-09-17T19:29:55.708Z,18.50
2018-09-17T19:32:23.878Z,18.40
2018-09-17T19:34:56.617Z,18.40
2018-09-17T19:37:30.755Z,18.30
2018-09-17T19:40:04.547Z,18.30
2018-09-17T19:42:33.075Z,18.20
2018-09-17T19:45:06.649Z,18.10
2018-09-17T19:47:34.750Z,18.00
2018-09-17T19:50:07.648Z,17.90
2018-09-17T19:52:35.996Z,17.80
2018-09-17T19:55:04.107Z,17.70
2018-09-17T19:57:37.538Z,17.70
2018-09-17T20:00:05.746Z,17.60
2018-09-17T20:02:33.371Z,17.60
2018-09-17T20:05:06.544Z,17.50
2018-09-17T20:07:34.171Z,17.40
2018-09-17T20:10:01.960Z,17.40
2018-09-17T20:12:29.560Z,17.30
2018-09-17T20:14:57.179Z,17.30
2018-09-17T20:17:25.055Z,17.20
2018-09-17T20:19:52.868Z,17.20
2018-09-17T20:22:38.620Z,17.10
2018-09-17T20:25:06.272Z,17.00
2018-09-17T20:27:33.923Z,16.80
2018-09-17T20:30:01.563Z,16.80
2018-09-17T20:32:29.262Z,16.70
2018-09-17T20:34:56.880Z,16.60
2018-09-17T20:37:24.595Z,16.60
2018-09-17T20:39:52.292Z,16.60
2018-09-17T20:42:20.077Z,16.50
2018-09-17T20:44:47.776Z,16.40
2018-09-17T20:47:15.401Z,16.40
2018-09-17T20:49:43.258Z,16.40
2018-09-17T20:52:11.027Z,16.40
2018-09-17T20:54:38.694Z,16.30
2018-09-17T20:57:06.358Z,16.20
2018-09-17T20:59:34.033Z,16.10
2018-09-17T21:02:01.745Z,16.00
2018-09-17T21:04:29.466Z,15.90
2018-09-17T21:06:57.178Z,15.90
2018-09-17T21:09:24.920Z,15.80
2018-09-17T21:11:52.553Z,15.80
2018-09-17T21:14:20.180Z,15.80
2018-09-17T21:16:47.960Z,15.70
2018-09-17T21:19:15.687Z,15.70
2018-09-17T21:21:43.304Z,15.60
2018-09-17T21:24:11.162Z,15.50
2018-09-17T21:26:38.806Z,15.50
2018-09-17T21:29:06.550Z,15.50
2018-09-17T21:31:34.308Z,15.40
2018-09-17T21:34:01.960Z,15.40
2018-09-17T21:36:29.634Z,15.30
2018-09-17T21:41:33.563Z,15.10
2018-09-17T21:44:01.213Z,15.10
2018-09-17T21:46:28.877Z,15.00
2018-09-17T21:48:56.506Z,15.00
2018-09-17T21:51:24.193Z,15.00
2018-09-17T21:53:51.927Z,14.90
2018-09-17T21:56:19.586Z,14.90
2018-09-17T21:58:47.386Z,14.90
2018-09-17T22:01:21.834Z,14.80
2018-09-17T22:03:50.026Z,14.80
2018-09-17T22:06:17.612Z,14.70
2018-09-17T22:08:45.260Z,14.70
2018-09-17T22:11:12.848Z,14.60
2018-09-17T22:13:40.436Z,14.60
2018-09-17T22:16:08.096Z,14.50
2018-09-17T22:18:35.707Z,14.40
2018-09-17T22:21:03.311Z,14.40
2018-09-17T22:23:30.937Z,14.40
2018-09-17T22:25:58.559Z,14.30
2018-09-17T22:28:26.213Z,14.20
2018-09-17T22:30:53.922Z,14.20
2018-09-17T22:33:21.652Z,14.10
2018-09-17T22:35:49.300Z,14.10
2018-09-17T22:38:17.098Z,14.00
2018-09-17T22:40:44.712Z,14.00
2018-09-17T22:43:12.351Z,14.00
2018-09-17T22:45:39.932Z,13.90
2018-09-17T22:48:07.532Z,13.90
2018-09-17T22:50:35.112Z,13.80
2018-09-17T22:53:02.693Z,13.80
2018-09-17T22:55:30.290Z,13.90
2018-09-17T22:57:57.887Z,13.80
2018-09-17T23:00:25.465Z,13.80
2018-09-17T23:02:53.076Z,13.80
2018-09-17T23:05:20.901Z,13.70
2018-09-17T23:07:48.488Z,13.70
2018-09-17T23:10:16.331Z,13.60
2018-09-17T23:12:43.996Z,13.60
2018-09-17T23:15:11.780Z,13.50
2018-09-17T23:20:03.613Z,13.50
2018-09-17T23:22:31.184Z,13.30
2018-09-17T23:24:58.780Z,13.30
2018-09-17T23:27:26.400Z,13.20
2018-09-17T23:29:53.995Z,13.10
2018-09-17T23:32:21.595Z,13.10
2018-09-17T23:34:49.508Z,13.00
2018-09-17T23:37:17.333Z,13.00
2018-09-17T23:39:44.920Z,13.00
2018-09-17T23:42:12.565Z,12.90
2018-09-17T23:44:40.200Z,12.90
2018-09-17T23:47:08.089Z,12.90
2018-09-17T23:49:35.916Z,12.90
2018-09-17T23:52:03.556Z,12.90
2018-09-17T23:54:31.156Z,12.90
2018-09-17T23:56:58.736Z,12.90
2018-09-17T23:59:26.468Z,12.90
